createdAt,value
2019-01-27T00:00:04.461Z,30.79
2019-01-27T00:01:04.431Z,31.26
2019-01-27T00:02:04.423Z,34.20
2019-01-27T00:03:04.424Z,36.76
2019-01-27T00:04:04.412Z,34.39
2019-01-27T00:05:04.436Z,34.48
2019-01-27T00:06:04.405Z,32.87
2019-01-27T00:07:04.399Z,36.57
2019-01-27T00:08:04.395Z,32.31
2019-01-27T00:09:04.388Z,36.57
2019-01-27T00:10:04.413Z,35.81
2019-01-27T00:11:04.377Z,34.96
2019-01-27T00:12:04.380Z,36.29
2019-01-27T00:13:04.371Z,35.24
2019-01-27T00:14:04.367Z,36.85
2019-01-27T00:15:04.387Z,38.28
2019-01-27T00:16:04.350Z,37.99
2019-01-27T00:17:04.350Z,32.87
2019-01-27T00:18:04.347Z,36.38
2019-01-27T00:19:04.374Z,31.74
2019-01-27T00:20:04.333Z,35.81
2019-01-27T00:21:04.331Z,32.12
2019-01-27T00:22:04.326Z,30.32
2019-01-27T00:23:04.322Z,28.89
2019-01-27T00:24:04.348Z,29.65
2019-01-27T00:25:04.342Z,30.79
2019-01-27T00:26:04.310Z,28.52
2019-01-27T00:27:04.302Z,31.36
2019-01-27T00:28:04.300Z,31.83
2019-01-27T00:29:04.293Z,31.36
2019-01-27T00:30:04.317Z,31.83
2019-01-27T00:31:04.284Z,30.88
2019-01-27T00:32:04.284Z,31.17
2019-01-27T00:33:04.288Z,32.40
2019-01-27T00:34:04.269Z,31.45
2019-01-27T00:35:04.292Z,33.35
2019-01-27T00:36:04.257Z,31.83
2019-01-27T00:37:04.252Z,33.92
2019-01-27T00:38:04.405Z,32.87
2019-01-27T00:39:04.244Z,32.78
2019-01-27T00:40:04.275Z,32.31
2019-01-27T00:41:04.236Z,31.45
2019-01-27T00:42:04.228Z,31.93
2019-01-27T00:43:04.224Z,31.93
2019-01-27T00:44:04.220Z,32.12
2019-01-27T00:45:04.241Z,27.95
2019-01-27T00:46:04.212Z,29.27
2019-01-27T00:47:04.204Z,26.90
2019-01-27T00:48:04.199Z,27.66
2019-01-27T00:49:04.198Z,31.17
2019-01-27T00:50:04.221Z,28.80
2019-01-27T00:51:04.188Z,28.23
2019-01-27T00:52:04.183Z,31.45
2019-01-27T00:53:04.177Z,28.14
2019-01-27T00:54:04.173Z,29.37
2019-01-27T00:55:04.196Z,32.12
2019-01-27T00:56:04.168Z,33.16
2019-01-27T00:57:04.159Z,36.85
2019-01-27T00:58:04.154Z,33.35
2019-01-27T00:59:04.146Z,38.37
2019-01-27T01:00:04.164Z,36.47
2019-01-27T01:01:04.139Z,36.38
2019-01-27T01:02:04.135Z,36.29
2019-01-27T01:03:04.133Z,36.95
2019-01-27T01:04:04.122Z,33.25
2019-01-27T01:05:04.148Z,36.66
2019-01-27T01:06:04.115Z,36.95
2019-01-27T01:07:04.110Z,36.85
2019-01-27T01:08:04.105Z,36.29
2019-01-27T01:09:04.102Z,36.00
2019-01-27T01:10:04.127Z,38.56
2019-01-27T01:11:04.116Z,37.90
2019-01-27T01:12:04.088Z,34.11
2019-01-27T01:13:04.083Z,36.47
2019-01-27T01:14:04.085Z,36.66
2019-01-27T01:15:04.073Z,37.04
2019-01-27T01:16:04.098Z,38.09
2019-01-27T01:17:04.061Z,38.37
2019-01-27T01:18:04.177Z,39.13
2019-01-27T01:19:04.052Z,37.90
2019-01-27T01:20:04.080Z,36.76
2019-01-27T01:21:04.042Z,35.53
2019-01-27T01:22:04.041Z,33.63
2019-01-27T01:23:04.033Z,36.76
2019-01-27T01:24:04.028Z,36.57
2019-01-27T01:25:04.053Z,36.19
2019-01-27T01:26:04.050Z,37.42
2019-01-27T01:27:04.012Z,36.85
2019-01-27T01:28:04.007Z,37.14
2019-01-27T01:29:04.007Z,37.33
2019-01-27T01:30:04.003Z,31.93
2019-01-27T01:31:04.024Z,36.57
2019-01-27T01:32:03.995Z,34.20
2019-01-27T01:33:03.984Z,30.60
2019-01-27T01:34:03.980Z,32.31
2019-01-27T01:35:03.978Z,32.21
2019-01-27T01:36:04.001Z,36.85
2019-01-27T01:37:03.968Z,32.68
2019-01-27T01:38:03.964Z,30.79
2019-01-27T01:39:03.959Z,28.61
2019-01-27T01:40:03.987Z,28.52
2019-01-27T01:41:03.948Z,31.74
2019-01-27T01:42:03.944Z,32.02
2019-01-27T01:43:03.938Z,34.77
2019-01-27T01:44:03.934Z,33.44
2019-01-27T01:45:03.955Z,30.69
2019-01-27T01:46:03.951Z,30.69
2019-01-27T01:47:03.956Z,35.24
2019-01-27T01:48:03.914Z,33.25
2019-01-27T01:49:03.912Z,33.92
2019-01-27T01:50:03.907Z,33.35
2019-01-27T01:51:03.930Z,33.63
2019-01-27T01:52:03.898Z,35.43
2019-01-27T01:53:03.890Z,34.20
2019-01-27T01:54:03.885Z,33.82
2019-01-27T01:55:03.882Z,36.29
2019-01-27T01:56:03.904Z,34.20
2019-01-27T01:57:03.876Z,39.51
2019-01-27T01:58:03.867Z,40.26
2019-01-27T01:59:03.874Z,43.30
2019-01-27T02:00:03.859Z,42.54
2019-01-27T02:01:03.882Z,49.55
2019-01-27T02:02:03.852Z,48.41
2019-01-27T02:03:03.847Z,46.99
2019-01-27T02:04:03.836Z,44.93
2019-01-27T02:05:03.832Z,42.35
2019-01-27T02:06:03.856Z,42.07
2019-01-27T02:07:03.826Z,45.48
2019-01-27T02:08:03.818Z,43.96
2019-01-27T02:09:03.813Z,44.53
2019-01-27T02:10:03.810Z,45.67
2019-01-27T02:11:03.833Z,46.61
2019-01-27T02:12:03.797Z,47.09
2019-01-27T02:13:03.794Z,46.90
2019-01-27T02:14:03.789Z,43.20
2019-01-27T02:15:03.786Z,45.86
2019-01-27T02:16:03.813Z,45.76
2019-01-27T02:17:03.805Z,45.76
2019-01-27T02:18:03.773Z,44.53
2019-01-27T02:19:03.768Z,44.91
2019-01-27T02:20:03.760Z,43.49
2019-01-27T02:21:03.757Z,43.58
2019-01-27T02:22:03.780Z,44.15
2019-01-27T02:23:03.747Z,43.01
2019-01-27T02:24:03.745Z,42.07
2019-01-27T02:25:03.736Z,39.32
2019-01-27T02:26:03.733Z,38.18
2019-01-27T02:27:03.757Z,39.03
2019-01-27T02:28:03.725Z,36.95
2019-01-27T02:29:03.715Z,37.33
2019-01-27T02:30:03.713Z,33.16
2019-01-27T02:31:03.735Z,33.54
2019-01-27T02:32:03.728Z,30.79
2019-01-27T02:33:03.699Z,28.04
2019-01-27T02:34:03.691Z,30.13
2019-01-27T02:35:03.685Z,31.64
2019-01-27T02:36:03.683Z,27.47
2019-01-27T02:37:03.708Z,27.66
2019-01-27T02:38:03.678Z,28.14
2019-01-27T02:39:03.666Z,30.22
2019-01-27T02:40:03.662Z,27.95
2019-01-27T02:41:03.687Z,30.03
2019-01-27T02:42:03.654Z,25.58
2019-01-27T02:43:03.652Z,26.62
2019-01-27T02:44:03.647Z,26.43
2019-01-27T02:45:03.646Z,26.90
2019-01-27T02:46:03.663Z,27.95
2019-01-27T02:47:03.626Z,30.32
2019-01-27T02:48:03.622Z,27.95
2019-01-27T02:49:03.618Z,28.70
2019-01-27T02:50:03.613Z,26.90
2019-01-27T02:51:03.639Z,26.34
2019-01-27T02:52:03.611Z,28.33
2019-01-27T02:53:03.604Z,29.27
2019-01-27T02:54:03.595Z,27.85
2019-01-27T02:55:03.589Z,30.32
2019-01-27T02:56:03.613Z,30.88
2019-01-27T02:57:03.580Z,32.59
2019-01-27T02:58:03.605Z,34.39
2019-01-27T02:59:03.568Z,29.18
2019-01-27T03:00:03.568Z,31.83
2019-01-27T03:01:03.588Z,30.69
2019-01-27T03:02:03.557Z,31.17
2019-01-27T03:03:03.549Z,28.70
2019-01-27T03:04:03.544Z,28.04
2019-01-27T03:05:03.540Z,29.46
2019-01-27T03:06:03.565Z,27.85
2019-01-27T03:07:03.534Z,25.86
2019-01-27T03:08:03.523Z,27.19
2019-01-27T03:09:03.519Z,30.03
2019-01-27T03:10:03.516Z,26.43
2019-01-27T03:11:03.540Z,26.72
2019-01-27T03:12:03.515Z,30.03
2019-01-27T03:13:03.500Z,28.42
2019-01-27T03:14:03.496Z,27.00
2019-01-27T03:15:03.492Z,28.04
2019-01-27T03:16:03.519Z,27.28
2019-01-27T03:17:03.484Z,27.19
2019-01-27T03:18:03.588Z,28.70
2019-01-27T03:19:03.472Z,30.79
2019-01-27T03:20:03.467Z,28.80
2019-01-27T03:21:03.492Z,29.94
2019-01-27T03:22:03.460Z,30.98
2019-01-27T03:23:03.451Z,33.92
2019-01-27T03:24:03.447Z,38.37
2019-01-27T03:25:03.443Z,34.77
2019-01-27T03:26:03.462Z,39.60
2019-01-27T03:27:03.430Z,37.90
2019-01-27T03:28:03.428Z,38.28
2019-01-27T03:29:03.424Z,35.81
2019-01-27T03:30:03.418Z,34.77
2019-01-27T03:31:03.443Z,36.10
2019-01-27T03:32:03.420Z,36.76
2019-01-27T03:33:03.412Z,37.04
2019-01-27T03:34:03.398Z,38.28
2019-01-27T03:35:03.394Z,39.13
2019-01-27T03:36:03.414Z,36.57
2019-01-27T03:37:03.382Z,37.14
2019-01-27T03:38:03.377Z,39.03
2019-01-27T03:39:03.374Z,39.32
2019-01-27T03:40:03.369Z,37.23
2019-01-27T03:41:03.391Z,39.98
2019-01-27T03:42:03.358Z,38.46
2019-01-27T03:43:03.392Z,36.85
2019-01-27T03:44:03.348Z,40.64
2019-01-27T03:45:03.344Z,38.09
2019-01-27T03:46:03.341Z,38.09
2019-01-27T03:47:03.365Z,38.28
2019-01-27T03:48:03.337Z,42.25
2019-01-27T03:49:03.325Z,42.92
2019-01-27T03:50:03.320Z,43.01
2019-01-27T03:51:03.317Z,41.02
2019-01-27T03:52:03.340Z,44.62
2019-01-27T03:53:03.332Z,39.70
2019-01-27T03:54:03.302Z,41.24
2019-01-27T03:55:03.296Z,36.47
2019-01-27T03:56:03.338Z,37.99
2019-01-27T03:57:03.299Z,37.14
2019-01-27T03:58:03.507Z,36.29
2019-01-27T03:59:03.277Z,35.62
2019-01-27T04:00:03.271Z,35.24
2019-01-27T04:01:03.268Z,34.11
2019-01-27T04:02:03.260Z,32.40
2019-01-27T04:03:03.289Z,31.83
2019-01-27T04:04:03.265Z,34.48
2019-01-27T04:05:03.248Z,35.34
2019-01-27T04:06:03.245Z,37.23
2019-01-27T04:07:03.242Z,36.47
2019-01-27T04:08:03.265Z,37.52
2019-01-27T04:09:03.223Z,36.76
2019-01-27T04:10:03.223Z,37.99
2019-01-27T04:11:03.226Z,40.45
2019-01-27T04:12:03.216Z,39.05
2019-01-27T04:13:03.242Z,38.46
2019-01-27T04:14:03.211Z,36.57
2019-01-27T04:15:03.200Z,36.47
2019-01-27T04:16:03.210Z,36.47
2019-01-27T04:17:03.191Z,36.66
2019-01-27T04:18:03.217Z,35.05
2019-01-27T04:19:03.183Z,36.66
2019-01-27T04:20:03.182Z,35.53
2019-01-27T04:21:03.172Z,35.34
2019-01-27T04:22:03.165Z,36.85
2019-01-27T04:23:03.190Z,33.16
2019-01-27T04:24:03.159Z,36.00
2019-01-27T04:25:03.153Z,36.10
2019-01-27T04:26:03.149Z,37.33
2019-01-27T04:27:03.145Z,38.75
2019-01-27T04:28:03.167Z,40.74
2019-01-27T04:29:03.133Z,40.64
2019-01-27T04:30:03.130Z,44.06
2019-01-27T04:31:03.126Z,42.18
2019-01-27T04:32:03.122Z,43.49
2019-01-27T04:33:03.141Z,41.59
2019-01-27T04:34:03.114Z,43.30
2019-01-27T04:35:03.133Z,42.16
2019-01-27T04:36:03.101Z,42.07
2019-01-27T04:37:03.096Z,40.83
2019-01-27T04:38:03.179Z,41.50
2019-01-27T04:39:03.092Z,39.32
2019-01-27T04:40:03.080Z,37.33
2019-01-27T04:41:03.084Z,40.83
2019-01-27T04:42:03.073Z,42.25
2019-01-27T04:43:03.096Z,42.25
2019-01-27T04:44:03.066Z,44.24
2019-01-27T04:45:03.061Z,43.11
2019-01-27T04:46:03.079Z,43.11
2019-01-27T04:47:03.052Z,42.82
2019-01-27T04:48:03.073Z,41.97
2019-01-27T04:49:03.044Z,44.43
2019-01-27T04:50:03.035Z,45.00
2019-01-27T04:51:03.036Z,46.04
2019-01-27T04:52:03.025Z,43.01
2019-01-27T04:53:03.068Z,44.53
2019-01-27T04:54:03.037Z,44.53
2019-01-27T04:55:03.015Z,45.76
2019-01-27T04:56:03.012Z,44.81
2019-01-27T04:57:03.010Z,44.15
2019-01-27T04:58:03.027Z,44.43
2019-01-27T04:59:02.991Z,41.50
2019-01-27T05:00:02.993Z,42.35
2019-01-27T05:01:02.983Z,41.78
2019-01-27T05:02:02.983Z,42.35
2019-01-27T05:03:03.005Z,42.35
2019-01-27T05:04:02.968Z,41.78
2019-01-27T05:05:02.964Z,43.11
2019-01-27T05:06:02.959Z,43.11
2019-01-27T05:07:02.960Z,43.39
2019-01-27T05:08:02.979Z,42.44
2019-01-27T05:09:02.977Z,41.69
2019-01-27T05:10:02.952Z,41.97
2019-01-27T05:11:02.936Z,38.37
2019-01-27T05:12:02.936Z,40.17
2019-01-27T05:13:02.927Z,39.98
2019-01-27T05:14:02.950Z,39.41
2019-01-27T05:15:02.922Z,39.70
2019-01-27T05:16:02.912Z,40.45
2019-01-27T05:17:02.908Z,40.64
2019-01-27T05:18:02.933Z,42.44
2019-01-27T05:19:02.897Z,43.11
2019-01-27T05:20:02.891Z,42.82
2019-01-27T05:21:02.891Z,41.69
2019-01-27T05:22:02.886Z,41.12
2019-01-27T05:23:02.919Z,39.51
2019-01-27T05:24:02.873Z,38.84
2019-01-27T05:25:02.874Z,39.13
2019-01-27T05:26:02.861Z,38.65
2019-01-27T05:27:02.860Z,38.56
2019-01-27T05:28:02.881Z,38.18
2019-01-27T05:29:02.848Z,36.85
2019-01-27T05:30:02.845Z,37.14
2019-01-27T05:31:02.842Z,36.47
2019-01-27T05:32:02.833Z,36.29
2019-01-27T05:33:02.857Z,35.53
2019-01-27T05:34:02.830Z,33.25
2019-01-27T05:35:02.827Z,28.80
2019-01-27T05:36:02.817Z,28.42
2019-01-27T05:37:02.847Z,26.62
2019-01-27T05:38:02.836Z,25.58
2019-01-27T05:39:02.803Z,23.21
2019-01-27T05:40:02.827Z,22.55
2019-01-27T05:41:02.794Z,21.98
2019-01-27T05:42:02.783Z,21.50
2019-01-27T05:43:02.779Z,21.22
2019-01-27T05:44:02.805Z,21.69
2019-01-27T05:45:02.771Z,24.44
2019-01-27T05:46:02.779Z,23.11
2019-01-27T05:47:02.770Z,22.83
2019-01-27T05:48:02.761Z,22.27
2019-01-27T05:49:02.787Z,26.81
2019-01-27T05:50:02.750Z,23.40
2019-01-27T05:51:02.748Z,23.21
2019-01-27T05:52:02.736Z,21.22
2019-01-27T05:53:02.734Z,20.28
2019-01-27T05:54:02.760Z,20.75
2019-01-27T05:55:02.723Z,22.17
2019-01-27T05:56:02.715Z,22.55
2019-01-27T05:57:02.723Z,25.77
2019-01-27T05:58:02.730Z,26.90
2019-01-27T05:59:02.731Z,28.33
2019-01-27T06:00:02.699Z,26.15
2019-01-27T06:01:02.689Z,26.72
2019-01-27T06:02:02.688Z,29.18
2019-01-27T06:03:02.682Z,30.13
2019-01-27T06:04:02.707Z,29.08
2019-01-27T06:05:02.680Z,28.80
2019-01-27T06:06:02.671Z,28.14
2019-01-27T06:07:02.667Z,27.95
2019-01-27T06:08:02.660Z,23.68
2019-01-27T06:09:02.681Z,26.53
2019-01-27T06:10:02.649Z,25.96
2019-01-27T06:11:02.648Z,20.37
2019-01-27T06:12:02.639Z,17.33
2019-01-27T06:13:02.634Z,19.13
2019-01-27T06:14:02.663Z,19.51
2019-01-27T06:15:02.626Z,20.18
2019-01-27T06:16:02.624Z,17.90
2019-01-27T06:17:02.614Z,18.85
2019-01-27T06:18:02.643Z,17.81
2019-01-27T06:19:02.609Z,19.89
2019-01-27T06:20:02.603Z,19.80
2019-01-27T06:21:02.597Z,19.23
2019-01-27T06:22:02.601Z,20.18
2019-01-27T06:23:02.613Z,18.66
2019-01-27T06:24:02.581Z,18.66
2019-01-27T06:25:02.582Z,19.42
2019-01-27T06:26:02.575Z,18.95
2019-01-27T06:27:02.581Z,19.23
2019-01-27T06:28:02.588Z,21.12
2019-01-27T06:29:02.554Z,18.48
2019-01-27T06:30:02.552Z,15.63
2019-01-27T06:31:02.552Z,17.81
2019-01-27T06:32:02.545Z,18.48
2019-01-27T06:33:02.567Z,22.74
2019-01-27T06:34:02.538Z,19.80
2019-01-27T06:35:02.535Z,23.02
2019-01-27T06:36:02.528Z,19.89
2019-01-27T06:37:02.524Z,24.63
2019-01-27T06:38:02.547Z,22.92
2019-01-27T06:39:02.510Z,19.42
2019-01-27T06:40:02.504Z,21.03
2019-01-27T06:41:02.499Z,23.02
2019-01-27T06:42:02.497Z,22.36
2019-01-27T06:43:02.522Z,24.73
2019-01-27T06:44:02.492Z,26.81
2019-01-27T06:45:02.479Z,27.38
2019-01-27T06:46:02.479Z,30.13
2019-01-27T06:47:02.471Z,32.21
2019-01-27T06:48:02.493Z,35.34
2019-01-27T06:49:02.462Z,33.06
2019-01-27T06:50:02.457Z,36.85
2019-01-27T06:51:02.450Z,32.40
2019-01-27T06:52:02.449Z,35.62
2019-01-27T06:53:02.471Z,35.24
2019-01-27T06:54:02.436Z,28.04
2019-01-27T06:55:02.437Z,29.46
2019-01-27T06:56:02.426Z,31.55
2019-01-27T06:57:02.419Z,33.44
2019-01-27T06:58:02.449Z,34.39
2019-01-27T06:59:02.415Z,30.60
2019-01-27T07:00:02.410Z,31.07
2019-01-27T07:01:02.407Z,35.62
2019-01-27T07:02:02.402Z,34.01
2019-01-27T07:03:02.469Z,31.93
2019-01-27T07:04:02.389Z,33.73
2019-01-27T07:05:02.386Z,33.63
2019-01-27T07:06:02.382Z,37.14
2019-01-27T07:07:02.414Z,32.02
2019-01-27T07:08:02.368Z,31.07
2019-01-27T07:09:02.368Z,32.02
2019-01-27T07:10:02.364Z,34.67
2019-01-27T07:11:02.387Z,38.65
2019-01-27T07:12:02.353Z,37.04
2019-01-27T07:13:02.375Z,34.58
2019-01-27T07:14:02.342Z,30.13
2019-01-27T07:15:02.339Z,34.39
2019-01-27T07:16:02.332Z,33.73
2019-01-27T07:17:02.332Z,33.63
2019-01-27T07:18:02.348Z,34.67
2019-01-27T07:19:02.319Z,31.93
2019-01-27T07:20:02.317Z,36.85
2019-01-27T07:21:02.309Z,36.95
2019-01-27T07:22:02.307Z,34.67
2019-01-27T07:23:02.330Z,36.19
2019-01-27T07:24:02.292Z,36.85
2019-01-27T07:25:02.288Z,30.88
2019-01-27T07:26:02.284Z,33.06
2019-01-27T07:27:02.281Z,36.66
2019-01-27T07:28:02.304Z,36.95
2019-01-27T07:29:02.273Z,32.21
2019-01-27T07:30:02.272Z,36.95
2019-01-27T07:31:02.258Z,37.61
2019-01-27T07:32:02.257Z,31.17
2019-01-27T07:33:02.277Z,33.54
2019-01-27T07:34:02.255Z,28.23
2019-01-27T07:35:02.243Z,27.76
2019-01-27T07:36:02.238Z,26.90
2019-01-27T07:37:02.238Z,30.22
2019-01-27T07:38:02.261Z,27.95
2019-01-27T07:39:02.227Z,28.14
2019-01-27T07:40:02.216Z,28.23
2019-01-27T07:41:02.214Z,29.37
2019-01-27T07:42:02.207Z,27.47
2019-01-27T07:43:02.248Z,28.89
2019-01-27T07:44:02.201Z,30.13
2019-01-27T07:45:02.192Z,30.88
2019-01-27T07:46:02.190Z,29.08
2019-01-27T07:47:02.187Z,31.45
2019-01-27T07:48:02.205Z,30.98
2019-01-27T07:49:02.173Z,33.92
2019-01-27T07:50:02.169Z,30.79
2019-01-27T07:51:02.181Z,38.84
2019-01-27T07:52:02.161Z,33.73
2019-01-27T07:53:02.186Z,32.68
2019-01-27T07:54:02.148Z,34.31
2019-01-27T07:55:02.147Z,37.80
2019-01-27T07:56:02.140Z,38.01
2019-01-27T07:57:02.137Z,40.19
2019-01-27T07:58:02.134Z,37.06
2019-01-27T07:59:02.157Z,41.14
2019-01-27T08:00:02.121Z,38.39
2019-01-27T08:01:02.116Z,38.01
2019-01-27T08:02:02.113Z,40.19
2019-01-27T08:03:02.110Z,39.81
2019-01-27T08:04:02.135Z,45.03
2019-01-27T08:05:02.110Z,49.57
2019-01-27T08:06:02.096Z,43.32
2019-01-27T08:07:02.938Z,41.05
2019-01-27T08:08:02.101Z,45.88
2019-01-27T08:09:02.115Z,42.94
2019-01-27T08:10:02.081Z,46.54
2019-01-27T08:11:02.083Z,44.74
2019-01-27T08:12:02.070Z,44.55
2019-01-27T08:13:02.063Z,51.57
2019-01-27T08:14:02.105Z,48.06
2019-01-27T08:15:02.057Z,49.01
2019-01-27T08:16:02.051Z,47.77
2019-01-27T08:17:03.571Z,50.99
2019-01-27T08:18:02.044Z,52.14
2019-01-27T08:19:02.068Z,50.62
2019-01-27T08:20:02.069Z,49.95
2019-01-27T08:21:02.030Z,51.57
2019-01-27T08:22:02.027Z,47.96
2019-01-27T08:23:02.021Z,51.28
2019-01-27T08:24:02.016Z,54.98
2019-01-27T08:25:02.041Z,57.35
2019-01-27T08:26:02.009Z,56.49
2019-01-27T08:27:02.003Z,54.79
2019-01-27T08:28:02.000Z,59.05
2019-01-27T08:29:01.995Z,55.07
2019-01-27T08:30:02.019Z,58.96
2019-01-27T08:31:01.990Z,62.28
2019-01-27T08:32:01.981Z,57.64
2019-01-27T08:33:01.978Z,60.95
2019-01-27T08:34:01.973Z,63.13
2019-01-27T08:35:02.002Z,62.94
2019-01-27T08:36:01.996Z,58.58
2019-01-27T08:37:01.960Z,62.47
2019-01-27T08:38:01.958Z,66.35
2019-01-27T08:39:01.956Z,63.89
2019-01-27T08:40:01.959Z,64.65
2019-01-27T08:41:01.974Z,66.83
2019-01-27T08:42:01.942Z,67.30
2019-01-27T08:43:01.938Z,66.35
2019-01-27T08:44:01.935Z,62.18
2019-01-27T08:45:01.958Z,63.13
2019-01-27T08:46:01.927Z,65.50
2019-01-27T08:47:01.923Z,67.87
2019-01-27T08:48:01.901Z,64.36
2019-01-27T08:49:01.918Z,67.21
2019-01-27T08:50:01.941Z,68.48
2019-01-27T08:51:01.905Z,70.56
2019-01-27T08:52:01.900Z,73.18
2019-01-27T08:53:01.899Z,77.48
2019-01-27T08:54:01.893Z,75.11
2019-01-27T08:55:01.917Z,72.45
2019-01-27T08:56:01.894Z,78.91
2019-01-27T08:57:01.884Z,74.83
2019-01-27T08:58:01.883Z,81.85
2019-01-27T08:59:01.872Z,75.59
2019-01-27T09:00:01.902Z,79.19
2019-01-27T09:01:01.866Z,84.88
2019-01-27T09:02:01.861Z,83.36
2019-01-27T09:03:03.385Z,86.40
2019-01-27T09:04:01.856Z,86.21
2019-01-27T09:05:01.879Z,86.11
2019-01-27T09:06:01.852Z,98.02
2019-01-27T09:07:01.848Z,97.64
2019-01-27T09:08:01.845Z,94.51
2019-01-27T09:09:01.840Z,97.07
2019-01-27T09:10:01.873Z,98.16
2019-01-27T09:11:01.839Z,92.28
2019-01-27T09:12:01.832Z,91.14
2019-01-27T09:13:02.430Z,90.10
2019-01-27T09:14:01.830Z,88.20
2019-01-27T09:15:01.863Z,87.25
2019-01-27T09:16:01.824Z,88.10
2019-01-27T09:17:01.824Z,88.87
2019-01-27T09:18:01.821Z,91.99
2019-01-27T09:19:01.820Z,88.01
2019-01-27T09:20:01.844Z,92.33
2019-01-27T09:21:01.811Z,94.13
2019-01-27T09:22:01.839Z,92.90
2019-01-27T09:23:01.808Z,99.99
2019-01-27T09:24:01.811Z,97.07
2019-01-27T09:25:01.802Z,95.84
2019-01-27T09:26:01.838Z,93.75
2019-01-27T09:27:01.831Z,96.08
2019-01-27T09:28:01.799Z,95.31
2019-01-27T09:29:01.803Z,89.81
2019-01-27T09:30:01.800Z,92.85
2019-01-27T09:31:01.793Z,92.09
2019-01-27T09:32:01.822Z,88.87
2019-01-27T09:33:01.791Z,84.22
2019-01-27T09:34:01.790Z,85.45
2019-01-27T09:35:01.836Z,83.17
2019-01-27T09:36:01.786Z,88.01
2019-01-27T09:37:01.809Z,86.02
2019-01-27T09:38:01.811Z,88.87
2019-01-27T09:39:01.783Z,94.46
2019-01-27T09:40:01.774Z,92.09
2019-01-27T09:41:01.778Z,91.52
2019-01-27T09:42:01.780Z,96.17
2019-01-27T09:43:01.805Z,91.33
2019-01-27T09:44:01.764Z,89.06
2019-01-27T09:45:01.762Z,92.09
2019-01-27T09:46:05.558Z,92.09
2019-01-27T09:47:02.056Z,92.18
2019-01-27T09:48:01.785Z,93.08
2019-01-27T09:49:01.752Z,96.12
2019-01-27T09:50:01.754Z,99.99
2019-01-27T09:51:01.749Z,99.99
2019-01-27T09:52:01.745Z,99.99
2019-01-27T09:53:01.776Z,99.99
2019-01-27T09:54:01.741Z,99.99
2019-01-27T09:55:01.761Z,99.99
2019-01-27T09:56:01.745Z,99.99
2019-01-27T09:57:01.743Z,99.99
2019-01-27T09:58:01.781Z,99.99
2019-01-27T09:59:01.749Z,99.99
2019-01-27T10:00:01.750Z,99.99
2019-01-27T10:01:01.750Z,99.99
2019-01-27T10:02:01.751Z,99.99
2019-01-27T10:03:01.787Z,99.99
2019-01-27T10:04:01.762Z,99.99
2019-01-27T10:05:01.760Z,98.59
2019-01-27T10:06:01.764Z,99.99
2019-01-27T10:07:01.759Z,99.99
2019-01-27T10:08:01.792Z,99.99
2019-01-27T10:09:01.764Z,99.99
2019-01-27T10:10:01.772Z,99.99
2019-01-27T10:11:01.762Z,99.99
2019-01-27T10:12:01.767Z,98.30
2019-01-27T10:13:01.783Z,98.40
2019-01-27T10:14:02.445Z,95.65
2019-01-27T10:15:01.763Z,93.37
2019-01-27T10:16:01.765Z,92.14
2019-01-27T10:17:01.766Z,91.56
2019-01-27T10:18:01.796Z,95.27
2019-01-27T10:19:01.769Z,96.50
2019-01-27T10:20:01.768Z,99.82
2019-01-27T10:21:01.766Z,97.45
2019-01-27T10:22:01.762Z,94.98
2019-01-27T10:23:01.791Z,98.07
2019-01-27T10:24:01.759Z,98.54
2019-01-27T10:25:01.777Z,99.99
2019-01-27T10:26:01.757Z,99.99
2019-01-27T10:27:01.760Z,99.99
2019-01-27T10:28:01.786Z,99.02
2019-01-27T10:29:01.796Z,99.99
2019-01-27T10:30:01.757Z,99.99
2019-01-27T10:31:01.754Z,99.35
2019-01-27T10:32:01.750Z,99.99
2019-01-27T10:33:01.749Z,99.99
2019-01-27T10:34:01.779Z,99.99
2019-01-27T10:35:01.745Z,99.99
2019-01-27T10:36:01.746Z,99.97
2019-01-27T10:37:01.748Z,99.99
2019-01-27T10:38:01.752Z,99.99
2019-01-27T10:39:01.773Z,99.99
2019-01-27T10:40:09.330Z,99.99
2019-01-27T10:41:01.736Z,99.99
2019-01-27T10:42:01.746Z,99.99
2019-01-27T10:43:01.786Z,99.99
2019-01-27T10:44:01.770Z,99.99
2019-01-27T10:45:01.738Z,99.99
2019-01-27T10:46:01.746Z,99.99
2019-01-27T10:47:01.742Z,99.99
2019-01-27T10:48:01.739Z,99.99
2019-01-27T10:49:01.778Z,99.99
2019-01-27T10:50:01.737Z,99.99
2019-01-27T10:51:01.737Z,99.99
2019-01-27T10:52:01.737Z,99.99
2019-01-27T10:53:01.737Z,99.99
2019-01-27T10:54:01.765Z,99.99
2019-01-27T10:55:01.749Z,99.99
2019-01-27T10:56:01.732Z,99.99
2019-01-27T10:57:01.736Z,99.99
2019-01-27T10:58:01.731Z,99.99
2019-01-27T10:59:01.760Z,99.99
2019-01-27T11:00:01.730Z,99.99
2019-01-27T11:01:01.729Z,99.99
2019-01-27T11:02:01.728Z,99.99
2019-01-27T11:03:01.730Z,99.99
2019-01-27T11:04:01.834Z,99.99
2019-01-27T11:05:01.723Z,99.99
2019-01-27T11:06:01.762Z,99.99
2019-01-27T11:07:01.719Z,99.99
2019-01-27T11:08:01.780Z,99.99
2019-01-27T11:09:01.719Z,99.99
2019-01-27T11:10:01.748Z,99.99
2019-01-27T11:11:01.716Z,99.99
2019-01-27T11:12:01.715Z,99.99
2019-01-27T11:13:01.719Z,99.99
2019-01-27T11:14:01.717Z,99.99
2019-01-27T11:15:01.743Z,99.99
2019-01-27T11:16:01.753Z,99.99
2019-01-27T11:17:01.720Z,99.99
2019-01-27T11:18:01.714Z,99.99
2019-01-27T11:19:01.719Z,99.99
2019-01-27T11:20:01.747Z,99.99
2019-01-27T11:21:01.722Z,99.99
2019-01-27T11:22:01.737Z,99.99
2019-01-27T11:23:01.723Z,99.99
2019-01-27T11:24:01.725Z,99.99
2019-01-27T11:25:01.755Z,99.99
2019-01-27T11:26:01.881Z,99.99
2019-01-27T11:27:01.723Z,99.99
2019-01-27T11:28:01.722Z,99.99
2019-01-27T11:29:01.725Z,99.99
2019-01-27T11:30:01.763Z,99.99
2019-01-27T11:31:01.728Z,99.99
2019-01-27T11:32:01.724Z,99.99
2019-01-27T11:33:02.620Z,99.99
2019-01-27T11:34:01.724Z,99.99
2019-01-27T11:35:01.760Z,99.99
2019-01-27T11:36:01.721Z,99.99
2019-01-27T11:37:01.723Z,99.99
2019-01-27T11:38:01.721Z,99.99
2019-01-27T11:39:01.729Z,99.99
2019-01-27T11:40:01.754Z,99.99
2019-01-27T11:41:01.723Z,99.99
2019-01-27T11:42:01.723Z,99.99
2019-01-27T11:43:01.721Z,99.99
2019-01-27T11:44:01.722Z,99.99
2019-01-27T11:45:01.754Z,99.99
2019-01-27T11:46:01.725Z,99.99
2019-01-27T11:47:01.726Z,99.99
2019-01-27T11:48:01.726Z,99.99
2019-01-27T11:49:01.729Z,99.99
2019-01-27T11:50:01.762Z,99.99
2019-01-27T11:51:01.735Z,99.99
2019-01-27T11:52:01.737Z,99.99
2019-01-27T11:53:01.745Z,99.99
2019-01-27T11:54:01.820Z,99.99
2019-01-27T11:55:01.774Z,99.99
2019-01-27T11:56:01.753Z,99.99
2019-01-27T11:57:01.750Z,99.99
2019-01-27T11:58:01.745Z,99.99
2019-01-27T11:59:01.757Z,99.99
2019-01-27T12:00:01.804Z,99.99
2019-01-27T12:01:01.764Z,99.99
2019-01-27T12:02:01.769Z,99.99
2019-01-27T12:03:01.772Z,99.99
2019-01-27T12:04:01.812Z,99.99
2019-01-27T12:05:01.782Z,99.99
2019-01-27T12:06:01.786Z,99.99
2019-01-27T12:07:01.857Z,99.99
2019-01-27T12:08:01.796Z,99.99
2019-01-27T12:09:01.824Z,99.99
2019-01-27T12:10:02.462Z,99.99
2019-01-27T12:11:01.807Z,99.99
2019-01-27T12:12:01.807Z,99.99
2019-01-27T12:13:01.810Z,99.99
2019-01-27T12:14:01.809Z,99.99
2019-01-27T12:15:01.840Z,99.99
2019-01-27T12:16:01.817Z,99.99
2019-01-27T12:17:01.822Z,99.99
2019-01-27T12:18:01.830Z,99.99
2019-01-27T12:19:01.834Z,99.99
2019-01-27T12:20:01.875Z,99.99
2019-01-27T12:21:01.842Z,99.99
2019-01-27T12:22:01.840Z,99.99
2019-01-27T12:23:01.846Z,99.99
2019-01-27T12:24:01.848Z,99.99
2019-01-27T12:25:01.879Z,99.99
2019-01-27T12:26:01.855Z,99.99
2019-01-27T12:27:01.862Z,99.99
2019-01-27T12:28:01.863Z,99.99
2019-01-27T12:29:01.868Z,99.99
2019-01-27T12:30:02.016Z,99.99
2019-01-27T12:31:01.873Z,99.99
2019-01-27T12:32:01.877Z,99.99
2019-01-27T12:33:01.884Z,99.99
2019-01-27T12:34:01.881Z,99.99
2019-01-27T12:35:01.912Z,99.99
2019-01-27T12:36:01.886Z,99.99
2019-01-27T12:37:02.467Z,99.99
2019-01-27T12:38:01.896Z,99.99
2019-01-27T12:39:01.898Z,99.99
2019-01-27T12:40:01.923Z,99.99
2019-01-27T12:41:01.904Z,99.99
2019-01-27T12:42:01.903Z,99.99
2019-01-27T12:43:01.910Z,99.99
2019-01-27T12:44:01.913Z,99.99
2019-01-27T12:45:01.947Z,99.99
2019-01-27T12:46:01.925Z,99.99
2019-01-27T12:47:01.930Z,99.99
2019-01-27T12:48:01.937Z,99.99
2019-01-27T12:49:01.938Z,99.99
2019-01-27T12:50:01.979Z,99.99
2019-01-27T12:51:01.950Z,99.99
2019-01-27T12:52:01.954Z,99.99